トロンハイム の空港の天気 - METARとTAF

Trondheim / Vaernes ( ENVA / TRD ) - ノルウェー ヌール・トロンデラーグ県、Stjordal
飛行場実況気象(Metar)
観測時間10/16 08:20 CEST (10/16 06:20 UTC)
風向・風速東南東 3m/s
視程10km以上
天気現象
全天の8割程度の雲 雲底高度 1620m
気温5℃
湿度93%
気圧1017hPa
METARENVA 160620Z 12006KT 9999 BKN053 05/04 Q1017 NOSIG RMK WIND 670FT 13003KT
過去の天気等 Google飛行場航空写真 Wunderground天気予報

過去48時間のMETAR

飛行場予報(TAF)
発表時間: -
16日17時 CEST ~ 17日8時 CEST に 確率 40% で一時的に
風向・風速南東 8m/s 瞬間風速 13m/s
TAF ENVA 1606/1706 12008KT 9999 BKN050
PROB40 TEMPO 1615/1706 14015G25KT